Time;durP1;ratioP1;P1;durP2;ratioP2;P2;SDS_P1;SDS_P2;PMS_P1;PMS_P2;Temp;Humidity;BMP_temperature;BMP_pressure;BME280_temperature;BME280_humidity;BME280_pressure;Samples;Min_cycle;Max_cycle;Signal;HPM_P1;HPM_P2
2022/10/28 00:03:31;;;;;;;59.42;36.72;;;;;;;11.07;100.00;100238.69;8505234;27;20038;-78
2022/10/28 00:07:32;;;;;;;62.85;37.03;;;;;;;11.03;100.00;100243.06;8503711;27;20483;-78
2022/10/28 00:11:33;;;;;;;59.80;34.90;;;;;;;10.97;100.00;100239.59;8519553;27;20506;-78
2022/10/28 00:15:34;;;;;;;56.17;35.08;;;;;;;10.94;100.00;100239.34;8482176;27;20139;-79
2022/10/28 00:19:35;;;;;;;56.35;33.83;;;;;;;10.94;100.00;100239.34;8480394;27;20046;-78
2022/10/28 00:23:37;;;;;;;58.97;33.88;;;;;;;10.90;100.00;100232.88;8508355;27;20554;-79
2022/10/28 00:27:38;;;;;;;58.85;34.25;;;;;;;10.92;100.00;100244.22;8508189;27;20050;-79
2022/10/28 00:31:39;;;;;;;66.70;34.38;;;;;;;10.91;100.00;100235.31;8511669;27;20069;-78
2022/10/28 00:35:40;;;;;;;50.95;32.97;;;;;;;10.87;100.00;100238.88;8450677;27;20415;-79
2022/10/28 00:39:41;;;;;;;58.78;32.78;;;;;;;10.87;100.00;100233.47;8475905;27;20070;-79
2022/10/28 00:43:43;;;;;;;57.25;33.38;;;;;;;10.84;100.00;100223.22;8520446;27;20583;-78
2022/10/28 00:47:50;;;;;;;49.83;32.40;;;;;;;10.79;100.00;100209.75;8443367;27;20051;-78
2022/10/28 00:51:55;;;;;;;51.50;31.70;;;;;;;10.79;100.00;100209.75;8457621;27;20047;-79
2022/10/28 00:55:59;;;;;;;60.78;34.17;;;;;;;10.78;100.00;100208.16;8508491;27;20407;-79
2022/10/28 01:00:02;;;;;;;57.85;34.47;;;;;;;10.75;100.00;100203.28;8483907;27;20051;-80
2022/10/28 01:04:04;;;;;;;54.92;32.70;;;;;;;10.73;100.00;100210.91;8511175;27;20551;-79
2022/10/28 01:08:05;;;;;;;56.67;33.00;;;;;;;10.72;100.00;100198.47;8412401;28;20055;-80
2022/10/28 01:12:20;;;;;;;53.47;32.95;;;;;;;10.70;100.00;100200.63;8417256;28;20047;-80
2022/10/28 01:16:51;;;;;;;54.05;33.88;;;;;;;10.66;100.00;100194.19;8339373;28;20119;-78
2022/10/28 01:21:24;;;;;;;55.85;33.20;;;;;;;10.67;100.00;100179.59;8352765;28;20072;-79
2022/10/28 01:25:34;;;;;;;51.00;31.83;;;;;;;10.61;100.00;100180.72;8354430;28;20056;-79
2022/10/28 01:29:57;;;;;;;54.15;33.30;;;;;;;10.58;100.00;100177.50;8354996;28;20049;-80
2022/10/28 01:34:09;;;;;;;61.58;33.50;;;;;;;10.52;100.00;100170.50;8357055;28;20045;-79
2022/10/28 01:38:45;;;;;;;53.17;32.47;;;;;;;10.47;100.00;100170.56;8368898;28;20048;-77
2022/10/28 01:42:52;;;;;;;56.13;32.65;;;;;;;10.43;100.00;100164.09;8357090;28;20045;-79
2022/10/28 01:47:03;;;;;;;58.78;31.73;;;;;;;10.38;100.00;100158.75;8455637;27;20508;-80
2022/10/28 01:51:12;;;;;;;56.08;32.65;;;;;;;10.35;100.00;100170.13;8494224;27;20073;-79
2022/10/28 01:55:34;;;;;;;49.28;31.30;;;;;;;10.31;100.00;100158.25;8501098;27;20406;-79
2022/10/28 01:59:36;;;;;;;56.30;31.65;;;;;;;10.24;100.00;100160.47;8445890;28;20036;-78
2022/10/28 02:03:36;;;;;;;56.78;31.13;;;;;;;10.15;100.00;100162.13;8437675;28;20040;-79
2022/10/28 02:07:37;;;;;;;48.05;31.73;;;;;;;10.09;100.00;100169.47;8437794;28;20090;-78
2022/10/28 02:11:47;;;;;;;46.70;31.17;;;;;;;10.08;100.00;100162.44;8437160;28;20142;-79
2022/10/28 02:16:06;;;;;;;56.45;33.47;;;;;;;10.08;100.00;100161.63;8454208;28;20101;-80
2022/10/28 02:20:25;;;;;;;50.80;32.75;;;;;;;10.12;100.00;100151.88;8442205;28;20538;-79
2022/10/28 02:24:50;;;;;;;52.17;32.22;;;;;;;10.15;100.00;100156.75;8453701;28;20044;-80
2022/10/28 02:28:56;;;;;;;52.63;33.70;;;;;;;10.16;100.00;100152.97;8456434;27;20111;-79
2022/10/28 02:33:00;;;;;;;55.63;34.40;;;;;;;10.19;100.00;100149.72;8505162;27;20053;-79
2022/10/28 02:37:05;;;;;;;55.45;34.67;;;;;;;10.21;100.00;100150.22;8504998;27;20051;-80
2022/10/28 02:41:24;;;;;;;63.30;35.63;;;;;;;10.20;100.00;100148.63;8498954;27;20061;-79
2022/10/28 02:45:28;;;;;;;58.08;35.72;;;;;;;10.23;100.00;100156.16;8486498;27;20074;-82
2022/10/28 02:49:31;;;;;;;68.18;35.70;;;;;;;10.24;100.00;100149.69;8502171;27;20043;-80
2022/10/28 02:53:38;;;;;;;53.95;33.42;;;;;;;10.23;100.00;100153.47;8471597;27;20046;-80
2022/10/28 02:57:43;;;;;;;55.00;33.30;;;;;;;10.22;100.00;100154.53;8485753;27;20054;-80
2022/10/28 03:01:44;;;;;;;56.83;34.63;;;;;;;10.20;100.00;100154.03;8486635;27;20074;-80
2022/10/28 03:05:45;;;;;;;56.08;33.17;;;;;;;10.20;100.00;100142.44;8519241;27;20042;-81
2022/10/28 03:09:46;;;;;;;61.47;34.20;;;;;;;10.20;100.00;100148.63;8518125;27;20047;-81
2022/10/28 03:13:47;;;;;;;55.78;33.30;;;;;;;10.19;100.00;100138.91;8482497;27;20047;-82
2022/10/28 03:17:48;;;;;;;57.13;34.28;;;;;;;10.19;100.00;100130.81;8518030;27;20476;-82
2022/10/28 03:21:49;;;;;;;48.95;32.00;;;;;;;10.21;100.00;100139.44;8511805;27;20042;-80
2022/10/28 03:25:50;;;;;;;53.40;33.10;;;;;;;10.20;100.00;100131.63;8507767;27;20137;-82
2022/10/28 03:29:51;;;;;;;47.40;31.52;;;;;;;10.20;100.00;100135.13;8505211;27;20125;-81
2022/10/28 03:33:51;;;;;;;64.45;35.60;;;;;;;10.19;100.00;100130.81;8511188;27;20035;-81
2022/10/28 03:37:52;;;;;;;58.50;34.55;;;;;;;10.20;100.00;100129.75;8514009;27;20104;-81
2022/10/28 03:41:53;;;;;;;58.33;34.75;;;;;;;10.19;100.00;100130.81;8484589;27;20075;-82
2022/10/28 03:45:54;;;;;;;58.05;34.72;;;;;;;10.17;100.00;100132.97;8518855;27;20128;-82
2022/10/28 03:49:55;;;;;;;59.58;35.67;;;;;;;10.18;100.00;100129.22;8511961;27;20472;-81
2022/10/28 03:53:56;;;;;;;60.35;34.17;;;;;;;10.17;100.00;100119.50;8464029;27;20042;-81
2022/10/28 03:58:00;;;;;;;52.50;33.92;;;;;;;10.18;100.00;100118.41;8504174;27;20418;-80
2022/10/28 04:02:01;;;;;;;53.80;33.88;;;;;;;10.17;100.00;100106.00;8508147;27;20047;-81
2022/10/28 04:06:02;;;;;;;56.67;32.90;;;;;;;10.13;100.00;100110.31;8484274;27;20625;-80
2022/10/28 04:10:03;;;;;;;55.70;34.03;;;;;;;10.15;100.00;100108.16;8508047;27;20058;-81
2022/10/28 04:14:04;;;;;;;58.83;34.72;;;;;;;10.14;100.00;100111.94;8462228;27;20039;-80
2022/10/28 04:18:05;;;;;;;60.30;33.28;;;;;;;10.12;100.00;100114.09;8503117;27;20126;-80
2022/10/28 04:22:07;;;;;;;58.08;32.80;;;;;;;10.10;100.00;100117.06;8499525;27;20051;-81
2022/10/28 04:26:08;;;;;;;60.95;34.15;;;;;;;10.08;100.00;100113.06;8500980;27;20094;-80
2022/10/28 04:30:11;;;;;;;53.17;32.70;;;;;;;10.08;100.00;100118.44;8510456;27;20042;-80
2022/10/28 04:34:12;;;;;;;61.35;33.63;;;;;;;10.11;100.00;100117.88;8502086;27;20054;-82
2022/10/28 04:38:14;;;;;;;53.13;32.90;;;;;;;10.10;100.00;100100.88;8505409;27;20039;-82
2022/10/28 04:42:15;;;;;;;60.03;32.63;;;;;;;10.08;100.00;100096.88;8502346;27;20043;-82
2022/10/28 04:46:16;;;;;;;60.33;33.30;;;;;;;10.09;100.00;100098.47;8504319;27;20431;-82
2022/10/28 04:50:17;;;;;;;59.42;33.35;;;;;;;10.08;100.00;100086.06;8504997;27;20075;-81
2022/10/28 04:54:17;;;;;;;52.63;32.28;;;;;;;10.07;100.00;100089.84;8515090;27;20047;-81
2022/10/28 04:58:18;;;;;;;51.92;32.25;;;;;;;10.03;100.00;100105.00;8487704;27;20058;-81
2022/10/28 05:02:22;;;;;;;52.00;31.15;;;;;;;10.02;100.00;100100.69;8503868;27;20134;-82
2022/10/28 05:06:23;;;;;;;53.08;31.50;;;;;;;10.00;100.00;100094.75;8507687;27;20497;-82
2022/10/28 05:10:24;;;;;;;53.40;31.48;;;;;;;9.99;100.00;100093.16;8479037;27;20031;-82
2022/10/28 05:14:25;;;;;;;49.90;30.90;;;;;;;10.01;100.00;100096.38;8508016;27;20047;-82
2022/10/28 05:18:25;;;;;;;51.95;30.80;;;;;;;9.97;100.00;100090.72;8500175;27;20455;-81
2022/10/28 05:22:27;;;;;;;55.78;32.28;;;;;;;9.98;100.00;100102.34;8510236;27;20043;-81
2022/10/28 05:26:27;;;;;;;53.58;32.88;;;;;;;9.98;100.00;100091.53;8518644;27;20047;-81
2022/10/28 05:30:28;;;;;;;55.40;31.83;;;;;;;9.99;100.00;100093.16;8477446;27;20056;-82
2022/10/28 05:34:29;;;;;;;51.67;31.73;;;;;;;10.02;100.00;100089.88;8508273;27;20063;-82
2022/10/28 05:38:30;;;;;;;49.83;31.40;;;;;;;10.00;100.00;100089.34;8523055;27;20053;-81
2022/10/28 05:42:31;;;;;;;53.13;31.58;;;;;;;10.02;100.00;100081.78;8522019;27;20039;-82
2022/10/28 05:46:32;;;;;;;63.80;37.95;;;;;;;10.00;100.00;100083.94;8517962;27;20130;-82
2022/10/28 05:50:33;;;;;;;53.28;31.92;;;;;;;10.04;100.00;100079.63;8506620;27;20092;-82
2022/10/28 05:54:34;;;;;;;51.80;32.40;;;;;;;10.10;100.00;100083.88;8526464;27;20043;-82
2022/10/28 05:58:35;;;;;;;53.67;33.65;;;;;;;10.12;100.00;100087.91;8527024;27;20039;-82
2022/10/28 06:02:36;;;;;;;55.63;34.10;;;;;;;10.18;100.00;100080.63;8469211;27;20043;-84
2022/10/28 06:06:37;;;;;;;53.53;34.30;;;;;;;10.21;100.00;100074.63;8525083;27;20451;-82
2022/10/28 06:10:39;;;;;;;56.28;32.20;;;;;;;10.26;100.00;100071.91;8527608;27;20050;-82
2022/10/28 06:14:39;;;;;;;59.63;35.15;;;;;;;10.29;100.00;100071.34;8532947;27;20129;-82
2022/10/28 06:18:40;;;;;;;58.38;33.17;;;;;;;10.33;100.00;100066.19;8518536;27;20038;-81
2022/10/28 06:22:50;;;;;;;55.03;33.97;;;;;;;10.35;100.00;100081.03;8416707;27;1381499;-82
2022/10/28 06:26:51;;;;;;;57.17;33.67;;;;;;;10.40;100.00;100083.69;8488938;27;20046;-82
2022/10/28 06:30:52;;;;;;;58.38;35.88;;;;;;;10.44;100.00;100073.91;8466198;27;20515;-82
2022/10/28 06:34:53;;;;;;;53.40;34.15;;;;;;;10.50;100.00;100078.19;8527506;27;20078;-79
2022/10/28 06:38:54;;;;;;;59.78;34.72;;;;;;;10.61;100.00;100083.47;8457393;27;20055;-84
2022/10/28 06:43:06;;;;;;;56.28;34.30;;;;;;;10.69;100.00;100090.94;8511425;27;20077;-82
2022/10/28 06:47:06;;;;;;;52.78;33.03;;;;;;;10.75;100.00;100095.22;8519391;27;20070;-82
2022/10/28 06:51:08;;;;;;;59.13;30.92;;;;;;;10.77;100.00;100098.44;8530980;27;20076;-84
2022/10/28 06:55:08;;;;;;;55.92;31.25;;;;;;;10.77;100.00;100103.84;8466282;27;20085;-82
2022/10/28 06:59:10;;;;;;;55.88;33.60;;;;;;;10.78;100.00;100106.28;8500165;27;20088;-81
2022/10/28 07:03:10;;;;;;;48.25;30.80;;;;;;;10.84;100.00;100115.16;8499810;27;20438;-82
2022/10/28 07:07:12;;;;;;;47.45;30.15;;;;;;;10.92;100.00;100111.81;8481570;27;20072;-82
2022/10/28 07:11:12;;;;;;;46.67;30.02;;;;;;;10.96;100.00;100107.44;8460794;27;20476;-82
2022/10/28 07:15:13;;;;;;;47.13;28.80;;;;;;;11.07;100.00;100108.13;8499274;27;20035;-81
2022/10/28 07:19:14;;;;;;;43.00;27.38;;;;;;;11.15;100.00;100116.44;8511214;27;20130;-82
2022/10/28 07:23:15;;;;;;;47.05;28.48;;;;;;;11.23;100.00;100115.78;8503169;27;20070;-82
2022/10/28 07:27:16;;;;;;;43.65;28.08;;;;;;;11.32;100.00;100122.16;8505677;27;20122;-80
2022/10/28 07:31:17;;;;;;;48.58;27.30;;;;;;;11.33;100.00;100115.66;8503866;27;20046;-82
2022/10/28 07:35:18;;;;;;;41.42;27.77;;;;;;;11.35;100.00;100110.78;8509683;27;20117;-81
2022/10/28 07:39:20;;;;;;;46.80;28.30;;;;;;;11.33;100.00;100102.13;8501155;27;20078;-84
2022/10/28 07:43:21;;;;;;;40.40;26.85;;;;;;;11.36;100.00;100104.28;8499134;27;20123;-84
2022/10/28 07:47:22;;;;;;;40.35;25.55;;;;;;;11.42;100.00;100094.97;8498666;27;20057;-82
2022/10/28 07:51:23;;;;;;;43.58;26.50;;;;;;;11.48;100.00;100103.84;8498652;27;20058;-82
2022/10/28 07:55:25;;;;;;;41.33;27.33;;;;;;;11.50;100.00;100103.56;8499994;27;20107;-82
2022/10/28 07:59:25;;;;;;;44.72;28.02;;;;;;;11.62;100.00;100103.94;8519873;27;20047;-80
2022/10/28 08:03:26;;;;;;;48.47;28.02;;;;;;;11.79;100.00;100098.88;8510597;27;20043;-81
2022/10/28 08:07:27;;;;;;;47.10;27.05;;;;;;;11.98;100.00;100098.84;8497736;27;20081;-83
2022/10/28 08:11:28;;;;;;;43.20;26.30;;;;;;;12.10;100.00;100105.44;8498673;27;20369;-81
2022/10/28 08:15:29;;;;;;;50.08;28.83;;;;;;;12.24;100.00;100106.31;8491945;27;20050;-82
2022/10/28 08:19:33;;;;;;;47.33;27.55;;;;;;;12.42;100.00;100093.03;8523676;27;20044;-84
2022/10/28 08:23:35;;;;;;;43.95;26.55;;;;;;;12.55;100.00;100078.69;8501438;27;20043;-84
2022/10/28 08:27:41;;;;;;;51.42;28.38;;;;;;;12.67;100.00;100084.44;8498170;27;20126;-80
2022/10/28 08:31:42;;;;;;;43.38;26.02;;;;;;;12.80;100.00;100097.19;8460177;27;20059;-81
2022/10/28 08:35:49;;;;;;;40.20;25.33;;;;;;;12.89;100.00;100106.28;8469886;27;20051;-82
2022/10/28 08:39:50;;;;;;;40.33;23.02;;;;;;;13.04;100.00;100100.56;8496834;27;20054;-80
2022/10/28 08:44:18;;;;;;;40.15;23.88;;;;;;;13.22;100.00;100087.22;8507000;27;20063;-81
2022/10/28 08:48:45;;;;;;;40.50;22.23;;;;;;;13.31;100.00;100097.06;8503004;27;20071;-83
2022/10/28 08:52:49;;;;;;;39.45;19.13;;;;;;;13.44;100.00;100106.28;8403264;28;20419;-80
2022/10/28 08:56:53;;;;;;;34.05;18.20;;;;;;;13.61;100.00;100103.75;8384624;28;20052;-80
2022/10/28 09:00:56;;;;;;;33.22;16.77;;;;;;;13.81;100.00;100106.03;8401481;28;20041;-86
2022/10/28 09:05:26;;;;;;;25.30;14.43;;;;;;;14.09;100.00;100100.50;8388438;28;20048;-79
2022/10/28 09:09:27;;;;;;;27.17;14.70;;;;;;;14.28;100.00;100099.22;8404141;28;20146;-81
2022/10/28 09:13:41;;;;;;;28.02;13.20;;;;;;;14.52;100.00;100101.66;8367011;28;20076;-80
2022/10/28 09:17:47;;;;;;;24.58;11.93;;;;;;;14.83;99.73;100098.13;8387782;28;20052;-80
2022/10/28 09:22:24;;;;;;;21.70;11.50;;;;;;;15.06;97.40;100102.41;8388883;28;20127;-80
2022/10/28 09:26:38;;;;;;;21.75;10.75;;;;;;;15.19;96.74;100101.50;8359948;28;20103;-81
2022/10/28 09:30:45;;;;;;;22.95;11.48;;;;;;;15.31;96.19;100107.16;8389352;28;20045;-81
2022/10/28 09:34:50;;;;;;;26.38;14.80;;;;;;;15.41;96.45;100101.41;8389362;28;20059;-82
2022/10/28 09:38:54;;;;;;;26.70;15.20;;;;;;;15.49;95.34;100095.16;8372219;28;20072;-81
2022/10/28 09:43:10;;;;;;;21.10;13.02;;;;;;;15.54;95.57;100103.25;8389206;28;20044;-81
2022/10/28 09:47:31;;;;;;;21.08;10.63;;;;;;;15.66;95.26;100104.53;8372279;28;20052;-81
2022/10/28 09:51:58;;;;;;;21.08;10.45;;;;;;;15.82;94.67;100108.38;8393642;28;20044;-81
2022/10/28 09:56:01;;;;;;;20.63;11.32;;;;;;;15.95;93.46;100107.44;8372084;28;20091;-81
2022/10/28 10:00:03;;;;;;;18.25;11.15;;;;;;;16.08;93.27;100106.47;8392422;27;20127;-81
2022/10/28 10:04:15;;;;;;;24.63;12.75;;;;;;;16.23;92.75;100100.53;8459175;28;20468;-82
2022/10/28 10:08:18;;;;;;;25.80;11.55;;;;;;;16.32;91.84;100109.53;8475965;28;20051;-81
2022/10/28 10:12:19;;;;;;;19.67;10.52;;;;;;;16.47;91.02;100098.13;8475604;28;20078;-80
2022/10/28 10:16:35;;;;;;;20.85;11.20;;;;;;;16.60;90.33;100095.56;8494031;27;20039;-81
2022/10/28 10:20:57;;;;;;;17.33;11.02;;;;;;;16.79;88.99;100093.25;8493709;27;20473;-81
2022/10/28 10:24:58;;;;;;;21.50;11.30;;;;;;;16.92;89.53;100080.56;8472485;27;20071;-81
2022/10/28 10:29:18;;;;;;;22.88;11.73;;;;;;;17.07;88.96;100077.28;8493947;27;20384;-81
2022/10/28 10:33:35;;;;;;;17.60;10.73;;;;;;;17.17;88.68;100077.69;8475696;27;20127;-81
2022/10/28 10:37:56;;;;;;;25.70;11.00;;;;;;;17.30;87.73;100064.94;8478086;28;20045;-81
2022/10/28 10:41:57;;;;;;;29.08;12.50;;;;;;;17.48;87.42;100060.97;8423663;28;20043;-81
2022/10/28 10:46:16;;;;;;;25.65;11.10;;;;;;;17.68;86.48;100064.88;8475198;28;20158;-82
2022/10/28 10:50:30;;;;;;;30.35;14.57;;;;;;;17.81;86.64;100063.84;8508103;27;20054;-82
2022/10/28 10:55:03;;;;;;;24.50;11.68;;;;;;;17.99;87.12;100043.41;8520789;27;20038;-82
2022/10/28 10:59:30;;;;;;;20.42;9.27;;;;;;;18.13;86.89;100048.63;8484127;27;20103;-82
2022/10/28 11:03:37;;;;;;;23.58;9.73;;;;;;;18.24;86.05;100054.47;8473779;27;20107;-81
2022/10/28 11:07:39;;;;;;;20.88;9.13;;;;;;;18.36;85.85;100062.69;8507597;27;20118;-81
2022/10/28 11:11:40;;;;;;;19.15;9.15;;;;;;;18.45;84.46;100060.69;8500233;27;20047;-81
2022/10/28 11:15:43;;;;;;;16.13;8.82;;;;;;;18.49;84.13;100050.66;8513477;27;20035;-81
2022/10/28 11:19:44;;;;;;;12.05;7.55;;;;;;;18.51;83.69;100053.84;8480727;27;20043;-80
2022/10/28 11:24:19;;;;;;;22.15;8.30;;;;;;;18.52;83.35;100049.97;8498971;27;20127;-80
2022/10/28 11:28:32;;;;;;;17.88;7.60;;;;;;;18.63;83.17;100042.97;8513285;27;20138;-81
2022/10/28 11:32:39;;;;;;;16.77;7.50;;;;;;;18.75;82.64;100042.97;8512665;27;20061;-80
2022/10/28 11:37:25;;;;;;;17.85;7.75;;;;;;;18.84;81.90;100032.72;8496903;27;20122;-80
2022/10/28 11:41:38;;;;;;;14.23;7.13;;;;;;;18.92;81.74;100037.31;8494875;27;20077;-81
2022/10/28 11:46:03;;;;;;;16.48;6.75;;;;;;;19.02;81.56;100036.06;8512185;27;20081;-81
2022/10/28 11:50:24;;;;;;;14.68;6.93;;;;;;;19.09;80.50;100024.53;8511128;27;20400;-82
2022/10/28 11:55:13;;;;;;;19.63;6.47;;;;;;;19.14;80.18;100027.03;8488701;27;20095;-81
2022/10/28 11:59:51;;;;;;;14.23;6.10;;;;;;;19.17;80.17;100026.34;8348483;28;20238;-81
2022/10/28 12:05:00;;;;;;;12.43;5.93;;;;;;;19.26;80.15;100018.78;8357550;28;20057;-82
2022/10/28 12:09:31;;;;;;;18.63;5.95;;;;;;;19.32;79.90;100033.84;8260422;28;20046;-80
2022/10/28 12:13:59;;;;;;;16.88;6.18;;;;;;;19.35;79.58;100016.75;8260818;28;20118;-80
2022/10/28 12:18:32;;;;;;;32.85;10.45;;;;;;;19.37;80.04;100008.97;8260359;28;20093;-82
2022/10/28 12:22:54;;;;;;;15.15;6.88;;;;;;;19.43;80.51;100013.06;8216611;28;20149;-81
2022/10/28 12:26:59;;;;;;;14.55;6.78;;;;;;;19.51;81.18;100014.88;8228367;28;20074;-81
2022/10/28 12:31:01;;;;;;;19.92;7.43;;;;;;;19.60;79.22;99992.84;8246161;28;20208;-81
2022/10/28 12:35:27;;;;;;;20.15;7.80;;;;;;;19.68;79.79;99998.19;8307377;28;20501;-81
2022/10/28 12:39:33;;;;;;;16.95;6.38;;;;;;;19.71;78.76;99992.03;8343002;28;20056;-85
2022/10/28 12:43:38;;;;;;;19.23;5.90;;;;;;;19.74;78.45;99991.31;8515436;27;20043;-81
2022/10/28 12:47:59;;;;;;;10.85;4.60;;;;;;;19.77;78.13;99976.91;8480192;27;20633;-81
2022/10/28 12:52:15;;;;;;;16.83;6.82;;;;;;;19.89;77.78;99967.03;8515361;27;20043;-81
2022/10/28 12:56:51;;;;;;;16.33;5.40;;;;;;;20.70;75.04;99957.44;8474978;27;20543;-81
2022/10/28 13:01:06;;;;;;;10.70;4.18;;;;;;;21.38;72.97;99963.34;8373618;28;20063;-81
2022/10/28 13:05:30;;;;;;;11.35;3.42;;;;;;;21.91;71.62;99954.22;8365666;28;20103;-81
2022/10/28 13:09:43;;;;;;;8.27;4.03;;;;;;;22.00;70.84;99954.00;8373035;28;20083;-81
2022/10/28 13:13:53;;;;;;;10.98;3.55;;;;;;;21.83;69.78;99954.47;8375602;28;20102;-81
2022/10/28 13:18:40;;;;;;;7.55;2.90;;;;;;;21.87;67.97;99958.06;8384415;28;20064;-82
2022/10/28 13:22:43;;;;;;;10.73;3.45;;;;;;;21.48;69.48;99952.56;8352271;28;20095;-81
2022/10/28 13:27:03;;;;;;;10.25;3.30;;;;;;;21.17;69.65;99947.19;8355264;28;20086;-82
2022/10/28 13:31:05;;;;;;;16.35;3.72;;;;;;;21.01;70.55;99946.41;8351183;28;20045;-81
2022/10/28 13:35:20;;;;;;;8.30;3.08;;;;;;;20.85;71.28;99937.38;8350188;28;20056;-81
2022/10/28 13:39:26;;;;;;;9.15;3.58;;;;;;;20.70;71.80;99938.22;8386281;28;20057;-81
2022/10/28 13:43:48;;;;;;;7.47;3.35;;;;;;;20.52;71.75;99938.56;8397897;28;20645;-80
2022/10/28 13:47:50;;;;;;;7.18;3.30;;;;;;;20.43;72.24;99935.22;8395851;28;20495;-81
2022/10/28 13:51:58;;;;;;;12.02;4.40;;;;;;;20.38;72.75;99937.44;8403262;28;20067;-81
2022/10/28 13:56:29;;;;;;;9.98;3.45;;;;;;;20.26;73.51;99941.00;8389532;28;20125;-82
2022/10/28 14:00:30;;;;;;;12.70;4.72;;;;;;;20.15;74.11;99957.19;8424589;28;20059;-80
2022/10/28 14:04:56;;;;;;;;;;;;;;;20.07;74.82;99954.63;8431504;28;20042;-81
2022/10/28 14:08:57;;;;;;;14.75;4.45;;;;;;;20.03;75.01;99954.53;8417079;28;19955;-82
2022/10/28 14:13:15;;;;;;;11.80;3.85;;;;;;;19.98;74.97;99956.75;8392708;28;20418;-81
2022/10/28 14:17:22;;;;;;;13.70;3.63;;;;;;;19.93;74.83;99954.25;8403655;28;20135;-81
2022/10/28 14:21:23;;;;;;;9.80;3.63;;;;;;;19.88;75.34;99940.81;8405808;28;20136;-80
2022/10/28 14:25:39;;;;;;;14.38;3.08;;;;;;;19.77;75.89;99949.50;8435168;28;20118;-81
2022/10/28 14:29:49;;;;;;;14.88;4.95;;;;;;;19.61;76.76;99943.19;8437475;28;20056;-81
2022/10/28 14:33:53;;;;;;;14.80;4.82;;;;;;;19.46;77.20;99943.91;8431534;28;20075;-82
2022/10/28 14:38:15;;;;;;;13.95;4.10;;;;;;;19.35;77.46;99942.81;8455528;27;20084;-82
2022/10/28 14:42:34;;;;;;;10.63;3.53;;;;;;;19.27;77.98;99938.25;8500289;27;20054;-82
2022/10/28 14:46:50;;;;;;;15.85;6.72;;;;;;;19.12;78.65;99930.75;8478799;27;20079;-82
2022/10/28 14:50:53;;;;;;;32.42;12.30;;;;;;;18.98;79.37;99926.41;8480291;27;20400;-82
2022/10/28 14:54:56;;;;;;;18.70;8.80;;;;;;;18.90;79.65;99919.16;8466771;27;20046;-81
2022/10/28 14:59:05;;;;;;;14.38;6.03;;;;;;;18.83;80.03;99915.38;8468355;27;20070;-81
2022/10/28 15:03:08;;;;;;;;;;;;;;;18.73;80.40;99908.44;8464748;27;20062;-82
2022/10/28 15:07:13;;;;;;;16.27;6.60;;;;;;;18.59;80.63;99913.47;8465281;27;19920;-81
2022/10/28 15:11:16;;;;;;;27.25;11.02;;;;;;;18.48;81.14;99915.03;8474254;27;20063;-82
2022/10/28 15:15:18;;;;;;;16.23;6.43;;;;;;;18.37;81.46;99905.69;8468465;27;20047;-82
2022/10/28 15:19:25;;;;;;;11.30;4.15;;;;;;;18.26;82.02;99910.00;8467101;27;20052;-82
2022/10/28 15:23:44;;;;;;;19.38;9.20;;;;;;;18.07;82.84;99908.63;8509641;27;20046;-82
2022/10/28 15:28:04;;;;;;;12.73;5.95;;;;;;;17.94;83.18;99915.19;8513038;27;20062;-81
2022/10/28 15:32:15;;;;;;;11.13;5.43;;;;;;;17.81;83.72;99916.28;8486386;27;20043;-81
2022/10/28 15:36:20;;;;;;;8.43;4.97;;;;;;;17.64;84.01;99916.44;8476991;27;20043;-81
2022/10/28 15:40:28;;;;;;;12.75;4.53;;;;;;;17.46;84.44;99914.97;8498371;27;20046;-81
2022/10/28 15:44:53;;;;;;;42.45;19.10;;;;;;;17.21;85.32;99909.41;8458928;27;20128;-81
2022/10/28 15:48:57;;;;;;;70.53;34.28;;;;;;;17.03;85.82;99907.91;8498332;27;20043;-81
2022/10/28 15:53:10;;;;;;;64.63;31.83;;;;;;;16.89;86.16;99907.38;8487600;27;20050;-81
2022/10/28 15:57:22;;;;;;;46.28;21.52;;;;;;;16.93;85.27;99913.75;8498234;27;20051;-82
2022/10/28 16:01:33;;;;;;;45.35;21.35;;;;;;;16.96;84.98;99902.22;8499270;27;20043;-81
2022/10/28 16:05:34;;;;;;;21.33;7.50;;;;;;;16.98;84.32;99910.84;8501680;27;20051;-81
2022/10/28 16:09:42;;;;;;;15.45;5.80;;;;;;;17.03;83.91;99916.09;8503935;27;20077;-80
2022/10/28 16:13:47;;;;;;;17.65;7.28;;;;;;;17.04;83.77;99909.53;8507440;27;20039;-81
2022/10/28 16:17:48;;;;;;;20.42;8.18;;;;;;;17.06;83.75;99910.00;8484798;27;20047;-81
2022/10/28 16:21:49;;;;;;;20.73;8.27;;;;;;;17.04;83.53;99909.53;8482773;27;20047;-81
2022/10/28 16:26:11;;;;;;;13.75;7.63;;;;;;;17.00;83.32;99897.69;8501192;27;20077;-81
2022/10/28 16:30:12;;;;;;;19.15;7.75;;;;;;;16.96;82.81;99904.13;8500970;27;20558;-81
2022/10/28 16:34:16;;;;;;;19.38;8.35;;;;;;;16.91;82.72;99899.69;8508335;27;20051;-80
2022/10/28 16:38:36;;;;;;;31.00;8.98;;;;;;;16.88;82.18;99900.31;8465855;27;20092;-79
2022/10/28 16:42:55;;;;;;;20.25;7.72;;;;;;;16.80;82.32;99903.91;8480480;27;20130;-81
2022/10/28 16:46:56;;;;;;;19.55;8.23;;;;;;;16.71;82.24;99911.31;8478012;27;20044;-82
2022/10/28 16:51:03;;;;;;;18.83;10.30;;;;;;;16.58;82.81;99906.91;8508969;27;20059;-80
2022/10/28 16:55:14;;;;;;;17.47;8.30;;;;;;;16.48;82.56;99918.97;8502456;27;20134;-81
2022/10/28 16:59:15;;;;;;;24.35;8.75;;;;;;;16.41;82.57;99914.03;8484752;27;20051;-80
2022/10/28 17:03:19;;;;;;;23.38;8.18;;;;;;;16.37;82.62;99913.09;8494412;27;20039;-80
2022/10/28 17:07:20;;;;;;;26.80;8.80;;;;;;;16.27;82.79;99899.81;8507148;27;20058;-81
2022/10/28 17:11:21;;;;;;;16.55;7.88;;;;;;;16.17;83.05;99908.38;8495821;27;20469;-80
2022/10/28 17:15:22;;;;;;;25.67;8.77;;;;;;;16.12;82.87;99908.53;8459743;27;20058;-81
2022/10/28 17:19:23;;;;;;;14.35;6.65;;;;;;;16.00;83.45;99908.41;8510021;27;20063;-80
2022/10/28 17:23:43;;;;;;;17.23;7.60;;;;;;;15.91;83.62;99896.75;8503173;27;20122;-81
2022/10/28 17:27:47;;;;;;;15.05;8.05;;;;;;;15.83;84.07;99892.09;8494897;27;20055;-82
2022/10/28 17:31:51;;;;;;;19.10;8.02;;;;;;;15.81;84.10;99899.81;8476718;27;20043;-81
2022/10/28 17:36:10;;;;;;;17.65;8.18;;;;;;;15.69;84.05;99894.22;8497241;27;20548;-80
2022/10/28 17:40:11;;;;;;;21.17;7.97;;;;;;;15.63;84.00;99899.84;8499187;27;20055;-81
2022/10/28 17:44:12;;;;;;;22.73;8.65;;;;;;;15.56;84.26;99894.06;8494808;27;20679;-81
2022/10/28 17:48:31;;;;;;;;;;;;;;;15.47;84.30;99893.25;8469441;27;20490;-81
2022/10/28 17:52:33;;;;;;;35.20;9.48;;;;;;;15.43;84.19;99884.16;8513024;27;19926;-80
2022/10/28 17:56:35;;;;;;;41.42;14.32;;;;;;;15.40;84.14;99890.22;8494497;27;20047;-80
2022/10/28 18:00:36;;;;;;;26.88;11.63;;;;;;;15.37;84.15;99882.72;8459974;27;20394;-80
2022/10/28 18:04:43;;;;;;;30.27;13.70;;;;;;;15.29;84.36;99899.81;8467397;27;20055;-81
2022/10/28 18:09:03;;;;;;;46.83;20.25;;;;;;;15.19;84.37;99889.25;8498469;27;20034;-82
2022/10/28 18:13:04;;;;;;;27.05;11.52;;;;;;;15.05;84.94;99899.50;8501232;27;20054;-80
2022/10/28 18:17:05;;;;;;;26.52;10.35;;;;;;;15.02;84.93;99889.25;8460979;27;20411;-80
2022/10/28 18:21:09;;;;;;;22.88;11.48;;;;;;;14.95;85.02;99897.09;8507417;27;20135;-81
2022/10/28 18:25:10;;;;;;;25.05;10.27;;;;;;;14.95;84.95;99884.31;8429386;27;20051;-79
2022/10/28 18:29:12;;;;;;;24.58;11.55;;;;;;;14.89;84.94;99884.78;8509841;27;20369;-79
2022/10/28 18:33:15;;;;;;;29.05;10.52;;;;;;;14.86;85.02;99879.97;8496679;27;20039;-79
2022/10/28 18:37:38;;;;;;;18.80;9.00;;;;;;;14.88;84.63;99883.97;8494121;27;20046;-79
2022/10/28 18:41:41;;;;;;;20.13;9.68;;;;;;;14.86;84.76;99879.97;8467373;27;20072;-80
2022/10/28 18:45:42;;;;;;;20.40;9.35;;;;;;;14.86;84.37;99890.84;8501069;27;20695;-79
2022/10/28 18:49:44;;;;;;;21.10;8.52;;;;;;;14.84;84.39;99893.06;8521010;27;20065;-80
2022/10/28 18:53:47;;;;;;;22.85;8.32;;;;;;;14.77;84.46;99893.53;8496834;27;20055;-79